sensor_id;sensor_type;location;lat;lon;timestamp;pressure;altitude;pressure_sealevel;temperature;humidity
14689;BME280;7432;48.728;9.154;2023-03-16T00:01:05;96920.72;;;0.47;97.54
14689;BME280;7432;48.728;9.154;2023-03-16T00:03:32;96921.22;;;0.38;99.09
14689;BME280;7432;48.728;9.154;2023-03-16T00:05:59;96901.94;;;0.36;98.31
14689;BME280;7432;48.728;9.154;2023-03-16T00:08:25;96924.03;;;0.34;98.80
14689;BME280;7432;48.728;9.154;2023-03-16T00:10:53;96919.69;;;0.36;98.68
14689;BME280;7432;48.728;9.154;2023-03-16T00:13:21;96916.56;;;0.46;98.80
14689;BME280;7432;48.728;9.154;2023-03-16T00:15:50;96919.88;;;0.47;98.69
14689;BME280;7432;48.728;9.154;2023-03-16T00:18:16;96915.28;;;0.53;98.20
14689;BME280;7432;48.728;9.154;2023-03-16T00:20:43;96915.25;;;0.39;97.93
14689;BME280;7432;48.728;9.154;2023-03-16T00:23:09;96911.72;;;0.28;98.75
14689;BME280;7432;48.728;9.154;2023-03-16T00:25:36;96910.66;;;0.32;98.43
14689;BME280;7432;48.728;9.154;2023-03-16T00:28:03;96914.81;;;0.33;98.51
14689;BME280;7432;48.728;9.154;2023-03-16T00:30:30;96910.66;;;0.32;98.25
14689;BME280;7432;48.728;9.154;2023-03-16T00:32:57;96911.81;;;0.26;98.74
14689;BME280;7432;48.728;9.154;2023-03-16T00:35:23;96909.00;;;0.31;99.08
14689;BME280;7432;48.728;9.154;2023-03-16T00:37:50;96909.94;;;0.30;99.00
14689;BME280;7432;48.728;9.154;2023-03-16T00:40:16;96917.53;;;0.30;98.54
14689;BME280;7432;48.728;9.154;2023-03-16T00:42:43;96923.59;;;0.27;99.42
14689;BME280;7432;48.728;9.154;2023-03-16T00:45:11;96919.41;;;0.26;99.46
14689;BME280;7432;48.728;9.154;2023-03-16T00:47:37;96918.91;;;0.35;98.66
14689;BME280;7432;48.728;9.154;2023-03-16T00:50:04;96911.88;;;0.25;98.21
14689;BME280;7432;48.728;9.154;2023-03-16T00:52:31;96919.56;;;0.23;98.85
14689;BME280;7432;48.728;9.154;2023-03-16T00:54:59;96905.38;;;0.21;98.69
14689;BME280;7432;48.728;9.154;2023-03-16T00:57:27;96897.75;;;0.07;99.15
14689;BME280;7432;48.728;9.154;2023-03-16T00:59:54;96918.53;;;0.12;98.76
14689;BME280;7432;48.728;9.154;2023-03-16T01:02:22;96906.91;;;0.23;98.64
14689;BME280;7432;48.728;9.154;2023-03-16T01:04:49;96911.00;;;0.26;97.72
14689;BME280;7432;48.728;9.154;2023-03-16T01:07:16;96915.94;;;0.13;98.26
14689;BME280;7432;48.728;9.154;2023-03-16T01:09:43;96906.69;;;0.12;98.66
14689;BME280;7432;48.728;9.154;2023-03-16T01:12:11;96903.19;;;0.15;97.81
14689;BME280;7432;48.728;9.154;2023-03-16T01:14:39;96909.88;;;0.16;98.08
14689;BME280;7432;48.728;9.154;2023-03-16T01:17:07;96905.66;;;0.16;97.96
14689;BME280;7432;48.728;9.154;2023-03-16T01:19:36;96904.34;;;0.09;98.27
14689;BME280;7432;48.728;9.154;2023-03-16T01:22:04;96906.53;;;0.15;98.58
14689;BME280;7432;48.728;9.154;2023-03-16T01:24:31;96903.84;;;0.18;98.43
14689;BME280;7432;48.728;9.154;2023-03-16T01:26:59;96912.16;;;0.20;98.46
14689;BME280;7432;48.728;9.154;2023-03-16T01:29:25;96916.31;;;0.21;98.92
14689;BME280;7432;48.728;9.154;2023-03-16T01:31:51;96909.75;;;0.33;98.59
14689;BME280;7432;48.728;9.154;2023-03-16T01:34:18;96902.31;;;0.30;98.80
14689;BME280;7432;48.728;9.154;2023-03-16T01:36:47;96901.84;;;0.23;99.74
14689;BME280;7432;48.728;9.154;2023-03-16T01:39:15;96901.94;;;0.22;99.67
14689;BME280;7432;48.728;9.154;2023-03-16T01:41:44;96894.34;;;0.22;100.00
14689;BME280;7432;48.728;9.154;2023-03-16T01:44:12;96895.91;;;0.24;100.00
14689;BME280;7432;48.728;9.154;2023-03-16T01:46:40;96901.03;;;0.23;100.00
14689;BME280;7432;48.728;9.154;2023-03-16T01:49:10;96892.06;;;0.17;100.00
14689;BME280;7432;48.728;9.154;2023-03-16T01:51:40;96893.72;;;0.18;100.00
14689;BME280;7432;48.728;9.154;2023-03-16T01:54:13;96900.38;;;0.19;100.00
14689;BME280;7432;48.728;9.154;2023-03-16T01:56:44;96896.78;;;0.23;100.00
14689;BME280;7432;48.728;9.154;2023-03-16T01:59:14;96899.53;;;0.34;99.87
14689;BME280;7432;48.728;9.154;2023-03-16T02:01:42;96885.94;;;0.21;100.00
14689;BME280;7432;48.728;9.154;2023-03-16T02:04:18;96887.69;;;0.35;100.00
14689;BME280;7432;48.728;9.154;2023-03-16T02:06:48;96883.81;;;0.43;100.00
14689;BME280;7432;48.728;9.154;2023-03-16T02:09:17;96885.25;;;0.47;100.00
14689;BME280;7432;48.728;9.154;2023-03-16T02:11:45;96886.88;;;0.48;99.56
14689;BME280;7432;48.728;9.154;2023-03-16T02:14:12;96880.34;;;0.44;99.69
14689;BME280;7432;48.728;9.154;2023-03-16T02:16:40;96872.69;;;0.46;99.32
14689;BME280;7432;48.728;9.154;2023-03-16T02:19:10;96851.69;;;0.30;99.69
14689;BME280;7432;48.728;9.154;2023-03-16T02:21:43;96870.94;;;0.32;99.02
14689;BME280;7432;48.728;9.154;2023-03-16T02:24:12;96859.81;;;0.35;99.21
14689;BME280;7432;48.728;9.154;2023-03-16T02:26:43;96856.19;;;0.25;99.83
14689;BME280;7432;48.728;9.154;2023-03-16T02:29:19;96858.63;;;0.26;99.76
14689;BME280;7432;48.728;9.154;2023-03-16T02:31:51;96866.75;;;0.17;99.66
14689;BME280;7432;48.728;9.154;2023-03-16T02:34:18;96866.50;;;0.22;100.00
14689;BME280;7432;48.728;9.154;2023-03-16T02:36:46;96865.13;;;0.16;99.82
14689;BME280;7432;48.728;9.154;2023-03-16T02:39:14;96876.50;;;0.09;100.00
14689;BME280;7432;48.728;9.154;2023-03-16T02:41:40;96866.47;;;0.08;100.00
14689;BME280;7432;48.728;9.154;2023-03-16T02:44:11;96863.03;;;0.09;100.00
14689;BME280;7432;48.728;9.154;2023-03-16T02:46:40;96860.50;;;0.09;99.76
14689;BME280;7432;48.728;9.154;2023-03-16T02:49:13;96868.25;;;0.06;99.32
14689;BME280;7432;48.728;9.154;2023-03-16T02:51:41;96852.69;;;-0.03;99.15
14689;BME280;7432;48.728;9.154;2023-03-16T02:54:08;96852.25;;;-0.09;99.23
14689;BME280;7432;48.728;9.154;2023-03-16T02:56:34;96856.38;;;-0.08;99.49
14689;BME280;7432;48.728;9.154;2023-03-16T02:59:00;96849.06;;;-0.13;98.99
14689;BME280;7432;48.728;9.154;2023-03-16T03:01:27;96853.28;;;-0.13;98.98
14689;BME280;7432;48.728;9.154;2023-03-16T03:03:53;96847.69;;;-0.18;99.11
14689;BME280;7432;48.728;9.154;2023-03-16T03:06:21;96844.25;;;-0.17;99.36
14689;BME280;7432;48.728;9.154;2023-03-16T03:08:49;96837.28;;;-0.28;99.40
14689;BME280;7432;48.728;9.154;2023-03-16T03:11:16;96842.75;;;-0.35;99.30
14689;BME280;7432;48.728;9.154;2023-03-16T03:13:43;96840.03;;;-0.32;98.73
14689;BME280;7432;48.728;9.154;2023-03-16T03:16:10;96837.34;;;-0.29;99.09
14689;BME280;7432;48.728;9.154;2023-03-16T03:18:36;96837.19;;;-0.26;98.87
14689;BME280;7432;48.728;9.154;2023-03-16T03:21:03;96840.69;;;-0.29;98.63
14689;BME280;7432;48.728;9.154;2023-03-16T03:23:31;96843.31;;;-0.30;98.86
14689;BME280;7432;48.728;9.154;2023-03-16T03:25:59;96821.56;;;-0.48;98.51
14689;BME280;7432;48.728;9.154;2023-03-16T03:28:27;96841.38;;;-0.41;98.99
14689;BME280;7432;48.728;9.154;2023-03-16T03:30:54;96839.03;;;-0.44;98.56
14689;BME280;7432;48.728;9.154;2023-03-16T03:33:20;96829.81;;;-0.45;98.74
14689;BME280;7432;48.728;9.154;2023-03-16T03:35:53;96827.34;;;-0.46;98.83
14689;BME280;7432;48.728;9.154;2023-03-16T03:38:20;96816.84;;;-0.54;99.10
14689;BME280;7432;48.728;9.154;2023-03-16T03:40:49;96833.00;;;-0.57;99.22
14689;BME280;7432;48.728;9.154;2023-03-16T03:43:15;96826.22;;;-0.56;99.28
14689;BME280;7432;48.728;9.154;2023-03-16T03:45:42;96824.28;;;-0.67;99.62
14689;BME280;7432;48.728;9.154;2023-03-16T03:48:08;96826.25;;;-0.72;99.79
14689;BME280;7432;48.728;9.154;2023-03-16T03:50:35;96829.25;;;-0.66;99.74
14689;BME280;7432;48.728;9.154;2023-03-16T03:53:02;96803.97;;;-0.66;99.05
14689;BME280;7432;48.728;9.154;2023-03-16T03:55:29;96821.00;;;-0.53;98.93
14689;BME280;7432;48.728;9.154;2023-03-16T03:57:57;96818.91;;;-0.61;98.51
14689;BME280;7432;48.728;9.154;2023-03-16T04:00:23;96815.38;;;-0.58;98.37
14689;BME280;7432;48.728;9.154;2023-03-16T04:02:50;96817.91;;;-0.58;98.73
14689;BME280;7432;48.728;9.154;2023-03-16T04:05:16;96817.91;;;-0.58;98.70
14689;BME280;7432;48.728;9.154;2023-03-16T04:07:43;96818.81;;;-0.60;99.30
14689;BME280;7432;48.728;9.154;2023-03-16T04:10:10;96817.91;;;-0.58;99.61
14689;BME280;7432;48.728;9.154;2023-03-16T04:12:36;96824.81;;;-0.46;99.02
14689;BME280;7432;48.728;9.154;2023-03-16T04:15:05;96820.66;;;-0.47;99.18
14689;BME280;7432;48.728;9.154;2023-03-16T04:17:31;96817.06;;;-0.43;98.97
14689;BME280;7432;48.728;9.154;2023-03-16T04:19:58;96799.63;;;-0.48;98.57
14689;BME280;7432;48.728;9.154;2023-03-16T04:22:26;96815.34;;;-0.43;98.37
14689;BME280;7432;48.728;9.154;2023-03-16T04:24:54;96812.66;;;-0.40;98.49
14689;BME280;7432;48.728;9.154;2023-03-16T04:27:20;96803.19;;;-0.36;98.27
14689;BME280;7432;48.728;9.154;2023-03-16T04:29:47;96803.63;;;-0.44;97.94
14689;BME280;7432;48.728;9.154;2023-03-16T04:32:15;96799.28;;;-0.42;98.20
14689;BME280;7432;48.728;9.154;2023-03-16T04:34:41;96801.81;;;-0.42;98.01
14689;BME280;7432;48.728;9.154;2023-03-16T04:37:08;96797.66;;;-0.43;98.00
14689;BME280;7432;48.728;9.154;2023-03-16T04:39:34;96798.13;;;-0.36;98.25
14689;BME280;7432;48.728;9.154;2023-03-16T04:42:00;96795.44;;;-0.33;98.01
14689;BME280;7432;48.728;9.154;2023-03-16T04:44:27;96798.56;;;-0.30;98.63
14689;BME280;7432;48.728;9.154;2023-03-16T04:46:53;96793.31;;;-0.41;98.53
14689;BME280;7432;48.728;9.154;2023-03-16T04:49:21;96790.28;;;-0.32;98.72
14689;BME280;7432;48.728;9.154;2023-03-16T04:51:47;96794.78;;;-0.37;99.13
14689;BME280;7432;48.728;9.154;2023-03-16T04:54:14;96792.72;;;-0.30;98.27
14689;BME280;7432;48.728;9.154;2023-03-16T04:56:40;96788.25;;;-0.41;98.57
14689;BME280;7432;48.728;9.154;2023-03-16T04:59:07;96791.03;;;-0.45;99.31
14689;BME280;7432;48.728;9.154;2023-03-16T05:01:34;96791.94;;;-0.46;99.38
14689;BME280;7432;48.728;9.154;2023-03-16T05:04:02;96793.56;;;-0.45;99.10
14689;BME280;7432;48.728;9.154;2023-03-16T05:06:30;96796.19;;;-0.47;98.86
14689;BME280;7432;48.728;9.154;2023-03-16T05:08:58;96795.13;;;-0.43;98.93
14689;BME280;7432;48.728;9.154;2023-03-16T05:11:24;96793.56;;;-0.45;98.88
14689;BME280;7432;48.728;9.154;2023-03-16T05:13:50;96794.13;;;-0.40;98.34
14689;BME280;7432;48.728;9.154;2023-03-16T05:16:17;96793.84;;;-0.50;98.42
14689;BME280;7432;48.728;9.154;2023-03-16T05:18:43;96785.59;;;-0.53;98.69
14689;BME280;7432;48.728;9.154;2023-03-16T05:21:09;96790.66;;;-0.53;98.39
14689;BME280;7432;48.728;9.154;2023-03-16T05:23:38;96786.41;;;-0.53;98.72
14689;BME280;7432;48.728;9.154;2023-03-16T05:26:04;96789.34;;;-0.45;98.01
14689;BME280;7432;48.728;9.154;2023-03-16T05:28:31;96793.19;;;-0.53;98.15
14689;BME280;7432;48.728;9.154;2023-03-16T05:30:58;96789.94;;;-0.55;98.06
14689;BME280;7432;48.728;9.154;2023-03-16T05:33:27;96788.63;;;-0.47;98.02
14689;BME280;7432;48.728;9.154;2023-03-16T05:35:54;96796.53;;;-0.53;97.63
14689;BME280;7432;48.728;9.154;2023-03-16T05:38:21;96789.84;;;-0.54;97.89
14689;BME280;7432;48.728;9.154;2023-03-16T05:40:49;96795.72;;;-0.53;97.89
14689;BME280;7432;48.728;9.154;2023-03-16T05:43:17;96790.50;;;-0.50;97.60
14689;BME280;7432;48.728;9.154;2023-03-16T05:45:43;96791.03;;;-0.45;97.73
14689;BME280;7432;48.728;9.154;2023-03-16T05:48:10;96788.44;;;-0.44;97.80
14689;BME280;7432;48.728;9.154;2023-03-16T05:50:36;96786.31;;;-0.36;97.77
14689;BME280;7432;48.728;9.154;2023-03-16T05:53:03;96785.69;;;-0.25;97.16
14689;BME280;7432;48.728;9.154;2023-03-16T05:55:29;96771.94;;;-0.21;97.17
14689;BME280;7432;48.728;9.154;2023-03-16T05:57:57;96783.38;;;0.00;96.58
14689;BME280;7432;48.728;9.154;2023-03-16T06:00:24;96778.06;;;0.19;96.26
14689;BME280;7432;48.728;9.154;2023-03-16T06:02:52;96779.03;;;0.30;94.69
14689;BME280;7432;48.728;9.154;2023-03-16T06:05:20;96771.00;;;0.24;94.36
14689;BME280;7432;48.728;9.154;2023-03-16T06:07:48;96770.00;;;0.26;95.13
14689;BME280;7432;48.728;9.154;2023-03-16T06:10:15;96778.88;;;0.33;94.56
14689;BME280;7432;48.728;9.154;2023-03-16T06:12:42;96767.66;;;0.23;94.51
14689;BME280;7432;48.728;9.154;2023-03-16T06:15:11;96779.31;;;0.40;94.88
14689;BME280;7432;48.728;9.154;2023-03-16T06:17:38;96775.69;;;0.44;94.30
14689;BME280;7432;48.728;9.154;2023-03-16T06:20:07;96776.16;;;0.50;94.66
14689;BME280;7432;48.728;9.154;2023-03-16T06:22:35;96780.84;;;0.56;94.90
14689;BME280;7432;48.728;9.154;2023-03-16T06:25:02;96776.97;;;0.51;94.25
14689;BME280;7432;48.728;9.154;2023-03-16T06:27:28;96775.50;;;0.61;95.11
14689;BME280;7432;48.728;9.154;2023-03-16T06:29:55;96781.28;;;0.63;94.45
14689;BME280;7432;48.728;9.154;2023-03-16T06:32:22;96790.34;;;0.67;94.23
14689;BME280;7432;48.728;9.154;2023-03-16T06:34:49;96786.63;;;0.58;95.34
14689;BME280;7432;48.728;9.154;2023-03-16T06:37:15;96791.50;;;0.76;95.13
14689;BME280;7432;48.728;9.154;2023-03-16T06:39:42;96781.63;;;0.85;93.84
14689;BME280;7432;48.728;9.154;2023-03-16T06:42:10;96781.53;;;0.87;94.24
14689;BME280;7432;48.728;9.154;2023-03-16T06:44:36;96780.50;;;1.03;94.02
14689;BME280;7432;48.728;9.154;2023-03-16T06:47:03;96785.94;;;1.24;94.58
14689;BME280;7432;48.728;9.154;2023-03-16T06:49:31;96787.63;;;1.38;92.73
14689;BME280;7432;48.728;9.154;2023-03-16T06:51:57;96778.22;;;1.52;91.85
14689;BME280;7432;48.728;9.154;2023-03-16T06:54:24;96783.31;;;1.65;91.97
14689;BME280;7432;48.728;9.154;2023-03-16T06:56:51;96792.28;;;1.70;91.47
14689;BME280;7432;48.728;9.154;2023-03-16T06:59:17;96781.94;;;1.73;91.42
14689;BME280;7432;48.728;9.154;2023-03-16T07:01:44;96792.41;;;1.82;90.69
14689;BME280;7432;48.728;9.154;2023-03-16T07:04:10;96794.16;;;1.94;90.84
14689;BME280;7432;48.728;9.154;2023-03-16T07:06:38;96798.59;;;2.03;89.83
14689;BME280;7432;48.728;9.154;2023-03-16T07:09:05;96792.53;;;2.18;89.50
14689;BME280;7432;48.728;9.154;2023-03-16T07:11:31;96789.47;;;2.38;89.51
14689;BME280;7432;48.728;9.154;2023-03-16T07:13:58;96796.69;;;2.57;87.99
14689;BME280;7432;48.728;9.154;2023-03-16T07:16:26;96799.91;;;2.84;87.11
14689;BME280;7432;48.728;9.154;2023-03-16T07:18:52;96801.78;;;3.06;86.83
14689;BME280;7432;48.728;9.154;2023-03-16T07:21:19;96802.75;;;3.39;86.75
14689;BME280;7432;48.728;9.154;2023-03-16T07:23:47;96798.44;;;3.64;85.26
14689;BME280;7432;48.728;9.154;2023-03-16T07:26:14;96806.56;;;3.92;84.05
14689;BME280;7432;48.728;9.154;2023-03-16T07:28:40;96814.72;;;4.19;82.49
14689;BME280;7432;48.728;9.154;2023-03-16T07:31:07;96806.16;;;4.43;81.13
14689;BME280;7432;48.728;9.154;2023-03-16T07:33:34;96806.31;;;4.74;80.42
14689;BME280;7432;48.728;9.154;2023-03-16T07:36:01;96805.03;;;4.91;78.04
14689;BME280;7432;48.728;9.154;2023-03-16T07:38:29;96808.69;;;5.20;76.93
14689;BME280;7432;48.728;9.154;2023-03-16T07:40:58;96810.25;;;5.75;76.06
14689;BME280;7432;48.728;9.154;2023-03-16T07:43:24;96807.66;;;6.79;72.67
14689;BME280;7432;48.728;9.154;2023-03-16T07:45:51;96812.16;;;7.93;67.20
14689;BME280;7432;48.728;9.154;2023-03-16T07:48:18;96813.63;;;9.17;62.39
14689;BME280;7432;48.728;9.154;2023-03-16T07:50:46;96819.47;;;9.54;59.76
14689;BME280;7432;48.728;9.154;2023-03-16T07:53:12;96818.19;;;8.96;59.01
14689;BME280;7432;48.728;9.154;2023-03-16T07:55:39;96815.97;;;9.56;58.36
14689;BME280;7432;48.728;9.154;2023-03-16T07:58:07;96807.16;;;10.96;55.69
14689;BME280;7432;48.728;9.154;2023-03-16T08:00:35;96821.09;;;13.29;50.28
14689;BME280;7432;48.728;9.154;2023-03-16T08:03:02;96822.13;;;15.08;45.68
14689;BME280;7432;48.728;9.154;2023-03-16T08:05:29;96827.84;;;16.75;41.90
14689;BME280;7432;48.728;9.154;2023-03-16T08:07:56;96818.47;;;17.55;38.89
14689;BME280;7432;48.728;9.154;2023-03-16T08:10:23;96821.25;;;19.50;36.46
14689;BME280;7432;48.728;9.154;2023-03-16T08:12:50;96823.81;;;20.33;34.58
14689;BME280;7432;48.728;9.154;2023-03-16T08:15:18;96830.78;;;21.49;33.19
14689;BME280;7432;48.728;9.154;2023-03-16T08:17:45;96836.91;;;22.97;30.17
14689;BME280;7432;48.728;9.154;2023-03-16T08:20:13;96827.06;;;23.95;29.58
14689;BME280;7432;48.728;9.154;2023-03-16T08:22:39;96839.34;;;25.18;27.97
14689;BME280;7432;48.728;9.154;2023-03-16T08:25:08;96832.91;;;25.96;26.06
14689;BME280;7432;48.728;9.154;2023-03-16T08:27:35;96827.53;;;23.64;26.95
14689;BME280;7432;48.728;9.154;2023-03-16T08:30:03;96830.44;;;25.02;26.58
14689;BME280;7432;48.728;9.154;2023-03-16T08:32:32;96825.41;;;26.36;25.74
14689;BME280;7432;48.728;9.154;2023-03-16T08:34:58;96815.50;;;27.37;24.88
14689;BME280;7432;48.728;9.154;2023-03-16T08:37:25;96818.50;;;27.50;24.42
14689;BME280;7432;48.728;9.154;2023-03-16T08:39:52;96811.53;;;27.39;23.98
14689;BME280;7432;48.728;9.154;2023-03-16T08:42:19;96803.81;;;27.28;24.65
14689;BME280;7432;48.728;9.154;2023-03-16T08:44:45;96798.84;;;26.53;24.64
14689;BME280;7432;48.728;9.154;2023-03-16T08:47:12;96805.75;;;26.59;24.29
14689;BME280;7432;48.728;9.154;2023-03-16T08:49:40;96801.97;;;27.28;23.63
14689;BME280;7432;48.728;9.154;2023-03-16T08:52:06;96804.19;;;24.57;26.12
14689;BME280;7432;48.728;9.154;2023-03-16T08:54:34;96791.88;;;24.46;26.21
14689;BME280;7432;48.728;9.154;2023-03-16T08:57:00;96795.16;;;23.92;27.44
14689;BME280;7432;48.728;9.154;2023-03-16T08:59:27;96790.28;;;25.82;25.26
14689;BME280;7432;48.728;9.154;2023-03-16T09:01:53;96787.63;;;23.04;26.92
14689;BME280;7432;48.728;9.154;2023-03-16T09:04:20;96784.50;;;23.30;26.75
14689;BME280;7432;48.728;9.154;2023-03-16T09:06:48;96788.41;;;23.28;27.15
14689;BME280;7432;48.728;9.154;2023-03-16T09:09:16;96788.22;;;23.86;26.53
14689;BME280;7432;48.728;9.154;2023-03-16T09:11:43;96795.84;;;21.67;29.41
14689;BME280;7432;48.728;9.154;2023-03-16T09:14:09;96798.84;;;24.07;26.81
14689;BME280;7432;48.728;9.154;2023-03-16T09:16:36;96794.22;;;24.26;26.52
14689;BME280;7432;48.728;9.154;2023-03-16T09:19:03;96798.34;;;25.70;25.00
14689;BME280;7432;48.728;9.154;2023-03-16T09:21:31;96789.59;;;25.05;25.16
14689;BME280;7432;48.728;9.154;2023-03-16T09:24:00;96782.53;;;26.02;24.09
14689;BME280;7432;48.728;9.154;2023-03-16T09:26:27;96782.84;;;26.06;23.97
14689;BME280;7432;48.728;9.154;2023-03-16T09:28:54;96781.69;;;24.50;25.20
14689;BME280;7432;48.728;9.154;2023-03-16T09:31:20;96772.88;;;24.77;25.53
14689;BME280;7432;48.728;9.154;2023-03-16T09:33:47;96774.16;;;22.54;26.74
14689;BME280;7432;48.728;9.154;2023-03-16T09:36:14;96769.16;;;22.87;26.80
14689;BME280;7432;48.728;9.154;2023-03-16T09:38:41;96771.31;;;21.13;27.93
14689;BME280;7432;48.728;9.154;2023-03-16T09:41:19;96776.09;;;18.47;32.61
14689;BME280;7432;48.728;9.154;2023-03-16T09:43:59;96782.34;;;16.98;35.15
14689;BME280;7432;48.728;9.154;2023-03-16T09:46:31;96766.47;;;15.61;38.63
14689;BME280;7432;48.728;9.154;2023-03-16T09:48:59;96755.72;;;13.89;41.86
14689;BME280;7432;48.728;9.154;2023-03-16T09:51:35;96755.66;;;11.70;45.63
14689;BME280;7432;48.728;9.154;2023-03-16T09:54:04;96753.91;;;11.71;46.50
14689;BME280;7432;48.728;9.154;2023-03-16T09:56:41;96741.94;;;10.96;48.71
14689;BME280;7432;48.728;9.154;2023-03-16T09:59:10;96729.84;;;10.88;49.01
14689;BME280;7432;48.728;9.154;2023-03-16T10:01:45;96739.03;;;10.91;49.33
14689;BME280;7432;48.728;9.154;2023-03-16T10:04:21;96727.53;;;11.27;48.77
14689;BME280;7432;48.728;9.154;2023-03-16T10:06:58;96736.97;;;10.94;49.01
14689;BME280;7432;48.728;9.154;2023-03-16T10:09:31;96731.06;;;10.68;50.92
14689;BME280;7432;48.728;9.154;2023-03-16T10:12:05;96739.16;;;10.47;51.12
14689;BME280;7432;48.728;9.154;2023-03-16T10:14:37;96733.84;;;10.41;52.96
14689;BME280;7432;48.728;9.154;2023-03-16T10:17:10;96736.81;;;10.54;51.61
14689;BME280;7432;48.728;9.154;2023-03-16T10:19:42;96744.59;;;10.70;51.74
14689;BME280;7432;48.728;9.154;2023-03-16T10:22:15;96756.94;;;10.58;50.50
14689;BME280;7432;48.728;9.154;2023-03-16T10:24:52;96749.13;;;10.76;49.62
14689;BME280;7432;48.728;9.154;2023-03-16T10:27:28;96743.25;;;10.58;50.37
14689;BME280;7432;48.728;9.154;2023-03-16T10:29:55;96727.69;;;10.67;49.94
14689;BME280;7432;48.728;9.154;2023-03-16T10:32:22;96728.56;;;10.84;49.99
14689;BME280;7432;48.728;9.154;2023-03-16T10:34:56;96719.63;;;11.20;50.83
14689;BME280;7432;48.728;9.154;2023-03-16T10:37:24;96719.47;;;11.22;48.77
14689;BME280;7432;48.728;9.154;2023-03-16T10:39:52;96721.91;;;11.48;49.59
14689;BME280;7432;48.728;9.154;2023-03-16T10:42:20;96724.41;;;11.73;48.27
14689;BME280;7432;48.728;9.154;2023-03-16T10:44:47;96725.03;;;10.93;47.65
14689;BME280;7432;48.728;9.154;2023-03-16T10:47:21;96725.31;;;10.40;48.81
14689;BME280;7432;48.728;9.154;2023-03-16T10:49:48;96725.44;;;10.39;49.81
14689;BME280;7432;48.728;9.154;2023-03-16T10:52:18;96707.34;;;10.56;48.88
14689;BME280;7432;48.728;9.154;2023-03-16T10:54:50;96703.00;;;10.49;52.14
14689;BME280;7432;48.728;9.154;2023-03-16T10:57:22;96696.19;;;10.40;50.61
14689;BME280;7432;48.728;9.154;2023-03-16T10:59:51;96697.47;;;10.86;49.48
14689;BME280;7432;48.728;9.154;2023-03-16T11:02:20;96694.59;;;10.97;49.67
14689;BME280;7432;48.728;9.154;2023-03-16T11:04:47;96697.44;;;10.78;49.43
14689;BME280;7432;48.728;9.154;2023-03-16T11:07:15;96683.91;;;10.67;50.16
14689;BME280;7432;48.728;9.154;2023-03-16T11:09:42;96681.97;;;10.36;50.77
14689;BME280;7432;48.728;9.154;2023-03-16T11:12:13;96692.38;;;10.00;51.45
14689;BME280;7432;48.728;9.154;2023-03-16T11:14:44;96698.88;;;9.87;50.66
14689;BME280;7432;48.728;9.154;2023-03-16T11:17:14;96702.97;;;9.97;50.20
14689;BME280;7432;48.728;9.154;2023-03-16T11:19:49;96698.16;;;9.94;49.29
14689;BME280;7432;48.728;9.154;2023-03-16T11:22:18;96694.56;;;9.87;49.45
14689;BME280;7432;48.728;9.154;2023-03-16T11:24:49;96687.66;;;9.88;49.34
14689;BME280;7432;48.728;9.154;2023-03-16T11:27:22;96688.47;;;9.88;49.76
14689;BME280;7432;48.728;9.154;2023-03-16T11:30:02;96676.28;;;9.98;49.12
14689;BME280;7432;48.728;9.154;2023-03-16T11:32:32;96682.59;;;10.22;49.18
14689;BME280;7432;48.728;9.154;2023-03-16T11:35:00;96679.19;;;10.21;49.39
14689;BME280;7432;48.728;9.154;2023-03-16T11:37:38;96681.84;;;10.11;48.68
14689;BME280;7432;48.728;9.154;2023-03-16T11:40:19;96672.34;;;10.12;50.77
14689;BME280;7432;48.728;9.154;2023-03-16T11:43:01;96689.56;;;10.11;47.30
14689;BME280;7432;48.728;9.154;2023-03-16T11:45:35;96679.66;;;9.73;48.32
14689;BME280;7432;48.728;9.154;2023-03-16T11:48:21;96674.53;;;9.99;49.66
14689;BME280;7432;48.728;9.154;2023-03-16T11:50:58;96665.66;;;10.19;47.52
14689;BME280;7432;48.728;9.154;2023-03-16T11:53:35;96666.63;;;10.18;47.13
14689;BME280;7432;48.728;9.154;2023-03-16T11:56:13;96658.50;;;10.05;48.45
14689;BME280;7432;48.728;9.154;2023-03-16T12:02:19;96647.63;;;10.19;48.30
14689;BME280;7432;48.728;9.154;2023-03-16T12:04:58;96643.84;;;10.05;47.81
14689;BME280;7432;48.728;9.154;2023-03-16T12:07:42;96640.56;;;10.13;47.54
14689;BME280;7432;48.728;9.154;2023-03-16T12:10:22;96641.13;;;10.07;47.12
14689;BME280;7432;48.728;9.154;2023-03-16T12:13:01;96627.25;;;10.00;46.87
14689;BME280;7432;48.728;9.154;2023-03-16T12:15:37;96611.63;;;9.93;48.53
14689;BME280;7432;48.728;9.154;2023-03-16T12:18:12;96621.03;;;10.02;50.20
14689;BME280;7432;48.728;9.154;2023-03-16T12:20:47;96595.78;;;10.06;50.08
14689;BME280;7432;48.728;9.154;2023-03-16T12:23:17;96618.91;;;10.32;48.88
14689;BME280;7432;48.728;9.154;2023-03-16T12:25:48;96614.72;;;10.31;49.72
14689;BME280;7432;48.728;9.154;2023-03-16T12:28:21;96621.84;;;10.45;49.26
14689;BME280;7432;48.728;9.154;2023-03-16T12:30:53;96622.66;;;10.37;48.55
14689;BME280;7432;48.728;9.154;2023-03-16T12:33:30;96621.72;;;10.46;47.94
14689;BME280;7432;48.728;9.154;2023-03-16T12:36:05;96622.16;;;10.42;48.63
14689;BME280;7432;48.728;9.154;2023-03-16T12:38:42;96631.53;;;10.51;48.99
14689;BME280;7432;48.728;9.154;2023-03-16T12:41:18;96620.94;;;10.62;47.14
14689;BME280;7432;48.728;9.154;2023-03-16T12:44:00;96622.22;;;10.58;46.59
14689;BME280;7432;48.728;9.154;2023-03-16T12:46:38;96618.25;;;10.80;45.53
14689;BME280;7432;48.728;9.154;2023-03-16T12:49:08;96614.72;;;10.97;45.60
14689;BME280;7432;48.728;9.154;2023-03-16T12:51:38;96619.44;;;11.34;44.56
14689;BME280;7432;48.728;9.154;2023-03-16T12:54:17;96607.78;;;11.62;44.27
14689;BME280;7432;48.728;9.154;2023-03-16T12:56:45;96597.47;;;11.86;42.39
14689;BME280;7432;48.728;9.154;2023-03-16T12:59:15;96600.56;;;11.73;42.76
14689;BME280;7432;48.728;9.154;2023-03-16T13:01:44;96596.34;;;11.72;42.70
14689;BME280;7432;48.728;9.154;2023-03-16T13:04:15;96590.75;;;11.53;42.23
14689;BME280;7432;48.728;9.154;2023-03-16T13:06:47;96587.19;;;11.29;44.88
14689;BME280;7432;48.728;9.154;2023-03-16T13:09:17;96587.69;;;11.17;42.16
14689;BME280;7432;48.728;9.154;2023-03-16T13:11:47;96589.59;;;11.07;43.14
14689;BME280;7432;48.728;9.154;2023-03-16T13:14:29;96599.28;;;11.05;44.03
14689;BME280;7432;48.728;9.154;2023-03-16T13:17:03;96594.44;;;11.10;41.61
14689;BME280;7432;48.728;9.154;2023-03-16T13:19:30;96597.50;;;11.05;43.01
14689;BME280;7432;48.728;9.154;2023-03-16T13:22:18;96603.16;;;11.01;42.12
14689;BME280;7432;48.728;9.154;2023-03-16T13:24:50;96593.78;;;10.84;42.09
14689;BME280;7432;48.728;9.154;2023-03-16T13:27:21;96593.59;;;10.77;44.25